sensor_id;sensor_type;location;lat;lon;timestamp;P1;durP1;ratioP1;P2;durP2;ratioP2
47844;SDS011;33605;48.822;8.796;2024-01-30T00:01:42;8.77;;;6.60;;
47844;SDS011;33605;48.822;8.796;2024-01-30T00:04:08;9.13;;;6.87;;
47844;SDS011;33605;48.822;8.796;2024-01-30T00:06:33;11.07;;;7.20;;
47844;SDS011;33605;48.822;8.796;2024-01-30T00:08:59;12.90;;;6.97;;
47844;SDS011;33605;48.822;8.796;2024-01-30T00:11:24;8.80;;;6.83;;
47844;SDS011;33605;48.822;8.796;2024-01-30T00:13:51;13.00;;;7.90;;
47844;SDS011;33605;48.822;8.796;2024-01-30T00:16:23;15.07;;;9.37;;
47844;SDS011;33605;48.822;8.796;2024-01-30T00:18:50;13.47;;;9.13;;
47844;SDS011;33605;48.822;8.796;2024-01-30T00:21:16;14.93;;;9.97;;
47844;SDS011;33605;48.822;8.796;2024-01-30T00:23:42;18.30;;;9.83;;
47844;SDS011;33605;48.822;8.796;2024-01-30T00:26:08;17.37;;;9.53;;
47844;SDS011;33605;48.822;8.796;2024-01-30T00:28:34;15.47;;;9.43;;
47844;SDS011;33605;48.822;8.796;2024-01-30T00:30:59;13.73;;;9.10;;
47844;SDS011;33605;48.822;8.796;2024-01-30T00:33:25;14.50;;;9.53;;
47844;SDS011;33605;48.822;8.796;2024-01-30T00:35:50;14.60;;;10.27;;
47844;SDS011;33605;48.822;8.796;2024-01-30T00:38:16;14.80;;;9.30;;
47844;SDS011;33605;48.822;8.796;2024-01-30T00:40:45;12.60;;;9.10;;
47844;SDS011;33605;48.822;8.796;2024-01-30T00:43:10;12.20;;;9.07;;
47844;SDS011;33605;48.822;8.796;2024-01-30T00:45:36;14.10;;;8.83;;
47844;SDS011;33605;48.822;8.796;2024-01-30T00:48:02;15.10;;;8.07;;
47844;SDS011;33605;48.822;8.796;2024-01-30T00:50:27;11.73;;;7.50;;
47844;SDS011;33605;48.822;8.796;2024-01-30T00:52:53;10.53;;;7.47;;
47844;SDS011;33605;48.822;8.796;2024-01-30T00:55:18;12.23;;;6.57;;
47844;SDS011;33605;48.822;8.796;2024-01-30T00:57:44;11.03;;;7.37;;
47844;SDS011;33605;48.822;8.796;2024-01-30T01:00:10;10.17;;;7.60;;
47844;SDS011;33605;48.822;8.796;2024-01-30T01:02:37;9.63;;;7.70;;
47844;SDS011;33605;48.822;8.796;2024-01-30T01:05:04;9.67;;;7.17;;
47844;SDS011;33605;48.822;8.796;2024-01-30T01:07:30;8.73;;;6.83;;
47844;SDS011;33605;48.822;8.796;2024-01-30T01:09:55;11.80;;;7.47;;
47844;SDS011;33605;48.822;8.796;2024-01-30T01:12:21;11.70;;;7.97;;
47844;SDS011;33605;48.822;8.796;2024-01-30T01:14:47;11.57;;;8.00;;
47844;SDS011;33605;48.822;8.796;2024-01-30T01:17:12;11.63;;;8.13;;
47844;SDS011;33605;48.822;8.796;2024-01-30T01:19:38;12.27;;;7.77;;
47844;SDS011;33605;48.822;8.796;2024-01-30T01:22:04;12.77;;;8.20;;
47844;SDS011;33605;48.822;8.796;2024-01-30T01:24:32;14.10;;;7.50;;
47844;SDS011;33605;48.822;8.796;2024-01-30T01:26:59;12.00;;;7.97;;
47844;SDS011;33605;48.822;8.796;2024-01-30T01:29:24;14.30;;;7.97;;
47844;SDS011;33605;48.822;8.796;2024-01-30T01:31:56;11.40;;;8.40;;
47844;SDS011;33605;48.822;8.796;2024-01-30T01:34:22;12.93;;;8.70;;
47844;SDS011;33605;48.822;8.796;2024-01-30T01:36:49;11.33;;;8.20;;
47844;SDS011;33605;48.822;8.796;2024-01-30T01:39:14;12.77;;;8.97;;
47844;SDS011;33605;48.822;8.796;2024-01-30T01:41:40;9.53;;;7.30;;
47844;SDS011;33605;48.822;8.796;2024-01-30T01:44:06;12.10;;;8.37;;
47844;SDS011;33605;48.822;8.796;2024-01-30T01:46:33;10.87;;;8.47;;
47844;SDS011;33605;48.822;8.796;2024-01-30T01:49:02;11.23;;;8.40;;
47844;SDS011;33605;48.822;8.796;2024-01-30T01:51:31;11.13;;;8.10;;
47844;SDS011;33605;48.822;8.796;2024-01-30T01:53:58;16.10;;;8.20;;
47844;SDS011;33605;48.822;8.796;2024-01-30T01:56:28;13.37;;;8.27;;
47844;SDS011;33605;48.822;8.796;2024-01-30T01:58:55;15.53;;;9.37;;
47844;SDS011;33605;48.822;8.796;2024-01-30T02:01:27;13.30;;;8.77;;
47844;SDS011;33605;48.822;8.796;2024-01-30T02:03:55;16.50;;;9.13;;
47844;SDS011;33605;48.822;8.796;2024-01-30T02:06:21;11.30;;;8.63;;
47844;SDS011;33605;48.822;8.796;2024-01-30T02:08:47;14.57;;;8.90;;
47844;SDS011;33605;48.822;8.796;2024-01-30T02:11:13;12.60;;;8.47;;
47844;SDS011;33605;48.822;8.796;2024-01-30T02:13:38;9.30;;;7.70;;
47844;SDS011;33605;48.822;8.796;2024-01-30T02:16:06;15.73;;;9.30;;
47844;SDS011;33605;48.822;8.796;2024-01-30T02:18:31;12.67;;;8.93;;
47844;SDS011;33605;48.822;8.796;2024-01-30T02:20:58;10.17;;;7.63;;
47844;SDS011;33605;48.822;8.796;2024-01-30T02:23:28;14.53;;;9.13;;
47844;SDS011;33605;48.822;8.796;2024-01-30T02:25:56;11.93;;;9.43;;
47844;SDS011;33605;48.822;8.796;2024-01-30T02:28:21;10.60;;;8.63;;
47844;SDS011;33605;48.822;8.796;2024-01-30T02:30:47;11.30;;;8.40;;
47844;SDS011;33605;48.822;8.796;2024-01-30T02:33:13;9.90;;;7.67;;
47844;SDS011;33605;48.822;8.796;2024-01-30T02:35:38;9.20;;;7.63;;
47844;SDS011;33605;48.822;8.796;2024-01-30T02:38:04;11.00;;;8.13;;
47844;SDS011;33605;48.822;8.796;2024-01-30T02:40:30;11.70;;;7.87;;
47844;SDS011;33605;48.822;8.796;2024-01-30T02:42:57;13.23;;;8.70;;
47844;SDS011;33605;48.822;8.796;2024-01-30T02:45:24;10.20;;;8.00;;
47844;SDS011;33605;48.822;8.796;2024-01-30T02:47:50;16.33;;;8.00;;
47844;SDS011;33605;48.822;8.796;2024-01-30T02:50:15;10.97;;;8.57;;
47844;SDS011;33605;48.822;8.796;2024-01-30T02:52:41;9.70;;;7.53;;
47844;SDS011;33605;48.822;8.796;2024-01-30T02:55:09;12.70;;;7.80;;
47844;SDS011;33605;48.822;8.796;2024-01-30T02:57:35;11.30;;;7.40;;
47844;SDS011;33605;48.822;8.796;2024-01-30T03:00:01;12.50;;;7.60;;
47844;SDS011;33605;48.822;8.796;2024-01-30T03:02:27;9.27;;;7.17;;
47844;SDS011;33605;48.822;8.796;2024-01-30T03:04:53;8.30;;;6.80;;
47844;SDS011;33605;48.822;8.796;2024-01-30T03:07:19;9.07;;;7.07;;
47844;SDS011;33605;48.822;8.796;2024-01-30T03:09:44;11.53;;;7.90;;
47844;SDS011;33605;48.822;8.796;2024-01-30T03:12:10;10.00;;;6.20;;
47844;SDS011;33605;48.822;8.796;2024-01-30T03:14:36;9.90;;;7.17;;
47844;SDS011;33605;48.822;8.796;2024-01-30T03:17:02;9.93;;;7.60;;
47844;SDS011;33605;48.822;8.796;2024-01-30T03:19:28;9.80;;;7.20;;
47844;SDS011;33605;48.822;8.796;2024-01-30T03:21:54;7.97;;;6.60;;
47844;SDS011;33605;48.822;8.796;2024-01-30T03:24:19;11.53;;;7.23;;
47844;SDS011;33605;48.822;8.796;2024-01-30T03:26:45;11.87;;;7.90;;
47844;SDS011;33605;48.822;8.796;2024-01-30T03:29:11;13.20;;;7.33;;
47844;SDS011;33605;48.822;8.796;2024-01-30T03:31:36;10.97;;;7.07;;
47844;SDS011;33605;48.822;8.796;2024-01-30T03:34:02;9.10;;;6.80;;
47844;SDS011;33605;48.822;8.796;2024-01-30T03:36:28;11.07;;;8.00;;
47844;SDS011;33605;48.822;8.796;2024-01-30T03:38:53;9.33;;;7.30;;
47844;SDS011;33605;48.822;8.796;2024-01-30T03:41:19;12.10;;;7.57;;
47844;SDS011;33605;48.822;8.796;2024-01-30T03:43:45;13.10;;;7.10;;
47844;SDS011;33605;48.822;8.796;2024-01-30T03:46:12;8.80;;;6.70;;
47844;SDS011;33605;48.822;8.796;2024-01-30T03:48:38;13.03;;;6.67;;
47844;SDS011;33605;48.822;8.796;2024-01-30T03:51:04;11.27;;;7.10;;
47844;SDS011;33605;48.822;8.796;2024-01-30T03:53:30;9.20;;;7.43;;
47844;SDS011;33605;48.822;8.796;2024-01-30T03:55:56;9.00;;;7.57;;
47844;SDS011;33605;48.822;8.796;2024-01-30T03:58:21;12.03;;;7.13;;
47844;SDS011;33605;48.822;8.796;2024-01-30T04:00:47;11.00;;;6.87;;
47844;SDS011;33605;48.822;8.796;2024-01-30T04:03:14;13.70;;;7.60;;
47844;SDS011;33605;48.822;8.796;2024-01-30T04:05:43;9.17;;;6.77;;
47844;SDS011;33605;48.822;8.796;2024-01-30T04:08:10;8.93;;;6.90;;
47844;SDS011;33605;48.822;8.796;2024-01-30T04:10:35;11.23;;;7.13;;
47844;SDS011;33605;48.822;8.796;2024-01-30T04:13:01;11.80;;;7.60;;
47844;SDS011;33605;48.822;8.796;2024-01-30T04:15:26;9.80;;;8.03;;
47844;SDS011;33605;48.822;8.796;2024-01-30T04:17:57;9.90;;;7.90;;
47844;SDS011;33605;48.822;8.796;2024-01-30T04:20:24;11.67;;;7.70;;
47844;SDS011;33605;48.822;8.796;2024-01-30T04:22:49;12.23;;;8.43;;
47844;SDS011;33605;48.822;8.796;2024-01-30T04:25:15;10.17;;;7.60;;
47844;SDS011;33605;48.822;8.796;2024-01-30T04:27:41;9.63;;;7.53;;
47844;SDS011;33605;48.822;8.796;2024-01-30T04:30:06;12.50;;;8.07;;
47844;SDS011;33605;48.822;8.796;2024-01-30T04:32:32;10.90;;;7.80;;
47844;SDS011;33605;48.822;8.796;2024-01-30T04:34:58;10.23;;;7.77;;
47844;SDS011;33605;48.822;8.796;2024-01-30T04:37:24;12.43;;;7.30;;
47844;SDS011;33605;48.822;8.796;2024-01-30T04:39:50;10.37;;;7.80;;
47844;SDS011;33605;48.822;8.796;2024-01-30T04:42:16;11.47;;;6.80;;
47844;SDS011;33605;48.822;8.796;2024-01-30T04:44:42;9.97;;;7.40;;
47844;SDS011;33605;48.822;8.796;2024-01-30T04:47:10;13.53;;;7.83;;
47844;SDS011;33605;48.822;8.796;2024-01-30T04:49:39;10.33;;;6.60;;
47844;SDS011;33605;48.822;8.796;2024-01-30T04:52:06;11.10;;;7.53;;
47844;SDS011;33605;48.822;8.796;2024-01-30T04:54:32;9.73;;;7.50;;
47844;SDS011;33605;48.822;8.796;2024-01-30T04:56:58;10.43;;;7.83;;
47844;SDS011;33605;48.822;8.796;2024-01-30T04:59:24;9.83;;;8.10;;
47844;SDS011;33605;48.822;8.796;2024-01-30T05:01:49;9.60;;;6.17;;
47844;SDS011;33605;48.822;8.796;2024-01-30T05:04:16;11.13;;;6.47;;
47844;SDS011;33605;48.822;8.796;2024-01-30T05:06:41;7.67;;;6.53;;
47844;SDS011;33605;48.822;8.796;2024-01-30T05:09:07;12.53;;;6.77;;
47844;SDS011;33605;48.822;8.796;2024-01-30T05:11:40;9.17;;;6.27;;
47844;SDS011;33605;48.822;8.796;2024-01-30T05:14:06;8.40;;;6.80;;
47844;SDS011;33605;48.822;8.796;2024-01-30T05:16:33;9.70;;;6.20;;
47844;SDS011;33605;48.822;8.796;2024-01-30T05:18:59;9.30;;;7.20;;
47844;SDS011;33605;48.822;8.796;2024-01-30T05:21:24;11.03;;;6.20;;
47844;SDS011;33605;48.822;8.796;2024-01-30T05:23:50;8.00;;;6.10;;
47844;SDS011;33605;48.822;8.796;2024-01-30T05:26:16;7.30;;;6.60;;
47844;SDS011;33605;48.822;8.796;2024-01-30T05:28:42;11.23;;;7.57;;
47844;SDS011;33605;48.822;8.796;2024-01-30T05:31:09;8.70;;;6.43;;
47844;SDS011;33605;48.822;8.796;2024-01-30T05:33:35;10.63;;;7.33;;
47844;SDS011;33605;48.822;8.796;2024-01-30T05:36:00;13.00;;;7.40;;
47844;SDS011;33605;48.822;8.796;2024-01-30T05:38:26;19.50;;;12.40;;
47844;SDS011;33605;48.822;8.796;2024-01-30T05:40:52;29.30;;;19.90;;
47844;SDS011;33605;48.822;8.796;2024-01-30T05:43:18;31.90;;;21.07;;
47844;SDS011;33605;48.822;8.796;2024-01-30T05:45:44;26.70;;;17.60;;
47844;SDS011;33605;48.822;8.796;2024-01-30T05:48:12;20.63;;;13.87;;
47844;SDS011;33605;48.822;8.796;2024-01-30T05:50:37;16.40;;;10.43;;
47844;SDS011;33605;48.822;8.796;2024-01-30T05:53:03;15.50;;;9.50;;
47844;SDS011;33605;48.822;8.796;2024-01-30T05:55:29;12.87;;;8.90;;
47844;SDS011;33605;48.822;8.796;2024-01-30T05:57:54;13.20;;;9.20;;
47844;SDS011;33605;48.822;8.796;2024-01-30T06:00:20;14.93;;;8.87;;
47844;SDS011;33605;48.822;8.796;2024-01-30T06:02:46;11.50;;;7.97;;
47844;SDS011;33605;48.822;8.796;2024-01-30T06:05:11;10.93;;;7.53;;
47844;SDS011;33605;48.822;8.796;2024-01-30T06:07:37;12.27;;;7.13;;
47844;SDS011;33605;48.822;8.796;2024-01-30T06:10:03;8.00;;;6.60;;
47844;SDS011;33605;48.822;8.796;2024-01-30T06:12:29;9.53;;;7.53;;
47844;SDS011;33605;48.822;8.796;2024-01-30T06:14:54;8.47;;;6.87;;
47844;SDS011;33605;48.822;8.796;2024-01-30T06:17:22;8.73;;;7.27;;
47844;SDS011;33605;48.822;8.796;2024-01-30T06:19:48;10.97;;;7.43;;
47844;SDS011;33605;48.822;8.796;2024-01-30T06:22:14;10.17;;;6.73;;
47844;SDS011;33605;48.822;8.796;2024-01-30T06:24:41;12.93;;;8.23;;
47844;SDS011;33605;48.822;8.796;2024-01-30T06:27:09;17.50;;;8.40;;
47844;SDS011;33605;48.822;8.796;2024-01-30T06:29:35;12.87;;;9.23;;
47844;SDS011;33605;48.822;8.796;2024-01-30T06:32:01;10.80;;;8.33;;
47844;SDS011;33605;48.822;8.796;2024-01-30T06:34:27;11.70;;;8.57;;
47844;SDS011;33605;48.822;8.796;2024-01-30T06:36:53;13.27;;;8.83;;
47844;SDS011;33605;48.822;8.796;2024-01-30T06:39:18;13.10;;;9.03;;
47844;SDS011;33605;48.822;8.796;2024-01-30T06:41:44;10.60;;;7.90;;
47844;SDS011;33605;48.822;8.796;2024-01-30T06:44:11;9.27;;;6.50;;
47844;SDS011;33605;48.822;8.796;2024-01-30T06:46:37;10.00;;;6.13;;
47844;SDS011;33605;48.822;8.796;2024-01-30T06:49:04;14.43;;;6.57;;
47844;SDS011;33605;48.822;8.796;2024-01-30T06:51:29;6.90;;;5.80;;
47844;SDS011;33605;48.822;8.796;2024-01-30T06:53:56;8.73;;;6.20;;
47844;SDS011;33605;48.822;8.796;2024-01-30T06:56:22;7.67;;;5.53;;
47844;SDS011;33605;48.822;8.796;2024-01-30T06:58:50;7.53;;;6.40;;
47844;SDS011;33605;48.822;8.796;2024-01-30T07:01:16;7.97;;;5.47;;
47844;SDS011;33605;48.822;8.796;2024-01-30T07:03:42;7.37;;;6.07;;
47844;SDS011;33605;48.822;8.796;2024-01-30T07:06:08;14.13;;;6.50;;
47844;SDS011;33605;48.822;8.796;2024-01-30T07:08:35;9.60;;;6.30;;
47844;SDS011;33605;48.822;8.796;2024-01-30T07:11:02;9.37;;;7.67;;
47844;SDS011;33605;48.822;8.796;2024-01-30T07:13:28;9.80;;;6.53;;
47844;SDS011;33605;48.822;8.796;2024-01-30T07:15:53;8.10;;;5.83;;
47844;SDS011;33605;48.822;8.796;2024-01-30T07:18:19;8.13;;;6.97;;
47844;SDS011;33605;48.822;8.796;2024-01-30T07:20:45;10.40;;;6.67;;
47844;SDS011;33605;48.822;8.796;2024-01-30T07:23:14;6.27;;;5.63;;
47844;SDS011;33605;48.822;8.796;2024-01-30T07:25:41;7.50;;;6.00;;
47844;SDS011;33605;48.822;8.796;2024-01-30T07:28:07;10.70;;;5.50;;
47844;SDS011;33605;48.822;8.796;2024-01-30T07:30:43;7.20;;;5.83;;
47844;SDS011;33605;48.822;8.796;2024-01-30T07:33:08;8.07;;;6.27;;
47844;SDS011;33605;48.822;8.796;2024-01-30T07:35:34;7.03;;;6.33;;
47844;SDS011;33605;48.822;8.796;2024-01-30T07:38:01;10.27;;;6.90;;
47844;SDS011;33605;48.822;8.796;2024-01-30T07:40:27;8.60;;;6.13;;
47844;SDS011;33605;48.822;8.796;2024-01-30T07:42:55;9.93;;;6.10;;
47844;SDS011;33605;48.822;8.796;2024-01-30T07:45:21;8.03;;;6.30;;
47844;SDS011;33605;48.822;8.796;2024-01-30T07:47:51;8.10;;;6.40;;
47844;SDS011;33605;48.822;8.796;2024-01-30T07:50:17;8.00;;;5.70;;
47844;SDS011;33605;48.822;8.796;2024-01-30T07:52:42;7.53;;;6.50;;
47844;SDS011;33605;48.822;8.796;2024-01-30T07:55:08;8.27;;;6.00;;
47844;SDS011;33605;48.822;8.796;2024-01-30T07:57:34;8.27;;;6.20;;
47844;SDS011;33605;48.822;8.796;2024-01-30T08:00:00;8.70;;;7.03;;
47844;SDS011;33605;48.822;8.796;2024-01-30T08:02:26;15.80;;;8.43;;
47844;SDS011;33605;48.822;8.796;2024-01-30T08:04:52;7.80;;;6.53;;
47844;SDS011;33605;48.822;8.796;2024-01-30T08:07:17;10.13;;;7.27;;
47844;SDS011;33605;48.822;8.796;2024-01-30T08:09:43;9.60;;;7.27;;
47844;SDS011;33605;48.822;8.796;2024-01-30T08:12:09;8.93;;;5.70;;
47844;SDS011;33605;48.822;8.796;2024-01-30T08:14:34;12.20;;;6.80;;
47844;SDS011;33605;48.822;8.796;2024-01-30T08:17:00;8.93;;;6.70;;
47844;SDS011;33605;48.822;8.796;2024-01-30T08:19:26;8.53;;;6.30;;
47844;SDS011;33605;48.822;8.796;2024-01-30T08:21:51;7.13;;;5.97;;
47844;SDS011;33605;48.822;8.796;2024-01-30T08:24:17;7.67;;;5.23;;
47844;SDS011;33605;48.822;8.796;2024-01-30T08:26:42;8.30;;;6.23;;
47844;SDS011;33605;48.822;8.796;2024-01-30T08:29:08;6.73;;;5.77;;
47844;SDS011;33605;48.822;8.796;2024-01-30T08:31:34;7.83;;;6.03;;
47844;SDS011;33605;48.822;8.796;2024-01-30T08:33:59;7.43;;;6.70;;
47844;SDS011;33605;48.822;8.796;2024-01-30T08:36:25;8.93;;;6.70;;
47844;SDS011;33605;48.822;8.796;2024-01-30T08:38:51;9.10;;;6.70;;
47844;SDS011;33605;48.822;8.796;2024-01-30T08:41:17;9.20;;;6.40;;
47844;SDS011;33605;48.822;8.796;2024-01-30T08:43:43;7.10;;;5.47;;
47844;SDS011;33605;48.822;8.796;2024-01-30T08:46:10;8.37;;;6.33;;
47844;SDS011;33605;48.822;8.796;2024-01-30T08:48:36;7.90;;;6.30;;
47844;SDS011;33605;48.822;8.796;2024-01-30T08:51:02;8.70;;;6.97;;
47844;SDS011;33605;48.822;8.796;2024-01-30T08:53:28;8.43;;;6.60;;
47844;SDS011;33605;48.822;8.796;2024-01-30T08:55:54;7.50;;;5.83;;
47844;SDS011;33605;48.822;8.796;2024-01-30T08:58:20;8.53;;;6.60;;
47844;SDS011;33605;48.822;8.796;2024-01-30T09:00:46;8.20;;;6.50;;
47844;SDS011;33605;48.822;8.796;2024-01-30T09:03:13;12.63;;;7.57;;
47844;SDS011;33605;48.822;8.796;2024-01-30T09:05:39;9.10;;;6.73;;
47844;SDS011;33605;48.822;8.796;2024-01-30T09:08:05;9.47;;;7.57;;
47844;SDS011;33605;48.822;8.796;2024-01-30T09:10:31;16.93;;;6.40;;
47844;SDS011;33605;48.822;8.796;2024-01-30T09:12:57;10.03;;;6.87;;
47844;SDS011;33605;48.822;8.796;2024-01-30T09:15:23;9.43;;;7.63;;
47844;SDS011;33605;48.822;8.796;2024-01-30T09:17:49;7.43;;;6.60;;
47844;SDS011;33605;48.822;8.796;2024-01-30T09:20:15;15.33;;;7.50;;
47844;SDS011;33605;48.822;8.796;2024-01-30T09:22:41;9.80;;;6.63;;
47844;SDS011;33605;48.822;8.796;2024-01-30T09:25:07;10.23;;;7.17;;
47844;SDS011;33605;48.822;8.796;2024-01-30T09:27:34;9.20;;;7.37;;
47844;SDS011;33605;48.822;8.796;2024-01-30T09:30:02;9.53;;;6.30;;
47844;SDS011;33605;48.822;8.796;2024-01-30T09:32:28;9.97;;;7.43;;
47844;SDS011;33605;48.822;8.796;2024-01-30T09:34:54;9.10;;;6.87;;
47844;SDS011;33605;48.822;8.796;2024-01-30T09:37:20;10.40;;;7.20;;
47844;SDS011;33605;48.822;8.796;2024-01-30T09:39:46;8.70;;;7.23;;
47844;SDS011;33605;48.822;8.796;2024-01-30T09:44:38;9.13;;;7.10;;
47844;SDS011;33605;48.822;8.796;2024-01-30T09:47:08;10.70;;;8.53;;
47844;SDS011;33605;48.822;8.796;2024-01-30T09:49:35;14.77;;;7.27;;
47844;SDS011;33605;48.822;8.796;2024-01-30T09:52:02;9.63;;;6.47;;
47844;SDS011;33605;48.822;8.796;2024-01-30T09:54:30;10.37;;;7.63;;
47844;SDS011;33605;48.822;8.796;2024-01-30T09:56:56;10.90;;;7.83;;
47844;SDS011;33605;48.822;8.796;2024-01-30T09:59:22;10.27;;;8.17;;
47844;SDS011;33605;48.822;8.796;2024-01-30T10:01:48;9.30;;;8.07;;
47844;SDS011;33605;48.822;8.796;2024-01-30T10:04:15;11.23;;;7.93;;
47844;SDS011;33605;48.822;8.796;2024-01-30T10:06:41;8.90;;;6.80;;
47844;SDS011;33605;48.822;8.796;2024-01-30T10:09:07;10.20;;;7.80;;
47844;SDS011;33605;48.822;8.796;2024-01-30T10:11:34;13.20;;;7.80;;
47844;SDS011;33605;48.822;8.796;2024-01-30T10:14:00;12.87;;;9.10;;
47844;SDS011;33605;48.822;8.796;2024-01-30T10:16:27;12.93;;;7.77;;
47844;SDS011;33605;48.822;8.796;2024-01-30T10:18:53;10.50;;;7.63;;
47844;SDS011;33605;48.822;8.796;2024-01-30T10:21:19;11.73;;;7.80;;
47844;SDS011;33605;48.822;8.796;2024-01-30T10:23:45;10.70;;;7.33;;
47844;SDS011;33605;48.822;8.796;2024-01-30T10:26:11;12.57;;;7.73;;
47844;SDS011;33605;48.822;8.796;2024-01-30T10:28:37;13.20;;;8.10;;
47844;SDS011;33605;48.822;8.796;2024-01-30T10:31:03;8.40;;;6.00;;
47844;SDS011;33605;48.822;8.796;2024-01-30T10:33:30;9.20;;;7.23;;
47844;SDS011;33605;48.822;8.796;2024-01-30T10:35:57;9.03;;;7.57;;
47844;SDS011;33605;48.822;8.796;2024-01-30T10:38:27;8.30;;;7.03;;
47844;SDS011;33605;48.822;8.796;2024-01-30T10:40:56;9.60;;;6.43;;
47844;SDS011;33605;48.822;8.796;2024-01-30T10:43:22;8.20;;;6.53;;
47844;SDS011;33605;48.822;8.796;2024-01-30T10:45:49;7.13;;;6.30;;
47844;SDS011;33605;48.822;8.796;2024-01-30T10:48:19;9.80;;;7.50;;
47844;SDS011;33605;48.822;8.796;2024-01-30T10:50:46;10.67;;;7.77;;
47844;SDS011;33605;48.822;8.796;2024-01-30T10:53:13;7.53;;;6.70;;
47844;SDS011;33605;48.822;8.796;2024-01-30T10:55:39;10.57;;;7.63;;
47844;SDS011;33605;48.822;8.796;2024-01-30T10:58:06;8.87;;;7.20;;
47844;SDS011;33605;48.822;8.796;2024-01-30T11:00:32;9.63;;;7.73;;
47844;SDS011;33605;48.822;8.796;2024-01-30T11:02:59;9.80;;;7.23;;
47844;SDS011;33605;48.822;8.796;2024-01-30T11:05:25;7.87;;;6.37;;
47844;SDS011;33605;48.822;8.796;2024-01-30T11:07:54;8.47;;;7.13;;
47844;SDS011;33605;48.822;8.796;2024-01-30T11:10:20;11.50;;;8.00;;
47844;SDS011;33605;48.822;8.796;2024-01-30T11:12:46;12.87;;;8.70;;
47844;SDS011;33605;48.822;8.796;2024-01-30T11:15:13;12.23;;;7.77;;
47844;SDS011;33605;48.822;8.796;2024-01-30T11:17:43;14.17;;;10.27;;
47844;SDS011;33605;48.822;8.796;2024-01-30T11:20:09;9.47;;;8.43;;
47844;SDS011;33605;48.822;8.796;2024-01-30T11:22:36;10.80;;;7.77;;
47844;SDS011;33605;48.822;8.796;2024-01-30T11:25:03;9.27;;;8.00;;
47844;SDS011;33605;48.822;8.796;2024-01-30T11:27:30;11.87;;;8.80;;
47844;SDS011;33605;48.822;8.796;2024-01-30T11:30:03;10.87;;;8.30;;
47844;SDS011;33605;48.822;8.796;2024-01-30T11:32:29;11.53;;;9.17;;
47844;SDS011;33605;48.822;8.796;2024-01-30T11:34:55;12.40;;;9.10;;
47844;SDS011;33605;48.822;8.796;2024-01-30T11:37:21;8.90;;;7.13;;
47844;SDS011;33605;48.822;8.796;2024-01-30T11:39:47;12.90;;;7.80;;
47844;SDS011;33605;48.822;8.796;2024-01-30T11:42:14;10.00;;;7.30;;
47844;SDS011;33605;48.822;8.796;2024-01-30T11:44:40;9.10;;;7.53;;
47844;SDS011;33605;48.822;8.796;2024-01-30T11:47:06;8.97;;;6.87;;
47844;SDS011;33605;48.822;8.796;2024-01-30T11:49:32;8.87;;;7.07;;
47844;SDS011;33605;48.822;8.796;2024-01-30T11:51:58;8.30;;;6.80;;
47844;SDS011;33605;48.822;8.796;2024-01-30T11:54:25;9.57;;;7.43;;
47844;SDS011;33605;48.822;8.796;2024-01-30T11:56:50;11.00;;;8.03;;
47844;SDS011;33605;48.822;8.796;2024-01-30T11:59:17;13.03;;;8.57;;
47844;SDS011;33605;48.822;8.796;2024-01-30T12:01:43;9.17;;;7.27;;
47844;SDS011;33605;48.822;8.796;2024-01-30T12:04:09;9.50;;;6.87;;
47844;SDS011;33605;48.822;8.796;2024-01-30T12:06:35;9.07;;;6.60;;
47844;SDS011;33605;48.822;8.796;2024-01-30T12:09:02;7.93;;;7.13;;
47844;SDS011;33605;48.822;8.796;2024-01-30T12:11:43;10.67;;;6.30;;
47844;SDS011;33605;48.822;8.796;2024-01-30T12:14:09;8.90;;;6.40;;
47844;SDS011;33605;48.822;8.796;2024-01-30T12:16:35;9.13;;;7.30;;
47844;SDS011;33605;48.822;8.796;2024-01-30T12:19:01;7.63;;;6.90;;
47844;SDS011;33605;48.822;8.796;2024-01-30T12:21:28;6.87;;;6.17;;
47844;SDS011;33605;48.822;8.796;2024-01-30T12:23:56;8.67;;;6.47;;
47844;SDS011;33605;48.822;8.796;2024-01-30T12:26:23;10.53;;;5.60;;
47844;SDS011;33605;48.822;8.796;2024-01-30T12:28:50;7.80;;;6.23;;
47844;SDS011;33605;48.822;8.796;2024-01-30T12:31:16;7.00;;;6.07;;
47844;SDS011;33605;48.822;8.796;2024-01-30T12:33:42;7.83;;;6.40;;
47844;SDS011;33605;48.822;8.796;2024-01-30T12:36:08;7.37;;;6.60;;
47844;SDS011;33605;48.822;8.796;2024-01-30T12:38:36;8.20;;;6.17;;
47844;SDS011;33605;48.822;8.796;2024-01-30T12:41:02;6.50;;;5.80;;
47844;SDS011;33605;48.822;8.796;2024-01-30T12:43:29;11.37;;;7.03;;
47844;SDS011;33605;48.822;8.796;2024-01-30T12:45:55;8.20;;;6.20;;
47844;SDS011;33605;48.822;8.796;2024-01-30T12:48:21;10.13;;;5.30;;
47844;SDS011;33605;48.822;8.796;2024-01-30T12:50:53;5.80;;;5.20;;
47844;SDS011;33605;48.822;8.796;2024-01-30T12:53:19;6.47;;;5.27;;
47844;SDS011;33605;48.822;8.796;2024-01-30T12:55:45;5.73;;;5.13;;
47844;SDS011;33605;48.822;8.796;2024-01-30T12:58:11;6.20;;;4.97;;
47844;SDS011;33605;48.822;8.796;2024-01-30T13:00:40;4.70;;;4.20;;
47844;SDS011;33605;48.822;8.796;2024-01-30T13:03:08;5.20;;;4.60;;
47844;SDS011;33605;48.822;8.796;2024-01-30T13:05:34;14.90;;;6.10;;
47844;SDS011;33605;48.822;8.796;2024-01-30T13:08:00;4.40;;;3.80;;
47844;SDS011;33605;48.822;8.796;2024-01-30T13:10:26;4.90;;;3.60;;
47844;SDS011;33605;48.822;8.796;2024-01-30T13:12:53;3.63;;;3.30;;
47844;SDS011;33605;48.822;8.796;2024-01-30T13:15:19;3.67;;;3.17;;
47844;SDS011;33605;48.822;8.796;2024-01-30T13:17:45;4.30;;;3.80;;
47844;SDS011;33605;48.822;8.796;2024-01-30T13:20:13;4.70;;;3.67;;
47844;SDS011;33605;48.822;8.796;2024-01-30T13:22:44;3.50;;;3.20;;
47844;SDS011;33605;48.822;8.796;2024-01-30T13:25:10;3.50;;;3.00;;
47844;SDS011;33605;48.822;8.796;2024-01-30T13:27:36;3.47;;;3.17;;
47844;SDS011;33605;48.822;8.796;2024-01-30T13:30:03;3.37;;;3.07;;
47844;SDS011;33605;48.822;8.796;2024-01-30T13:32:29;8.07;;;3.60;;
47844;SDS011;33605;48.822;8.796;2024-01-30T13:34:55;3.80;;;3.20;;
47844;SDS011;33605;48.822;8.796;2024-01-30T13:37:22;4.30;;;3.40;;
47844;SDS011;33605;48.822;8.796;2024-01-30T13:39:48;3.47;;;3.17;;
47844;SDS011;33605;48.822;8.796;2024-01-30T13:42:14;3.93;;;3.50;;
47844;SDS011;33605;48.822;8.796;2024-01-30T13:44:40;7.23;;;3.80;;
47844;SDS011;33605;48.822;8.796;2024-01-30T13:47:08;5.10;;;3.80;;
47844;SDS011;33605;48.822;8.796;2024-01-30T13:49:34;4.70;;;3.30;;
47844;SDS011;33605;48.822;8.796;2024-01-30T13:52:00;4.17;;;3.67;;
47844;SDS011;33605;48.822;8.796;2024-01-30T13:54:26;4.47;;;3.93;;
47844;SDS011;33605;48.822;8.796;2024-01-30T13:56:52;3.57;;;3.27;;
47844;SDS011;33605;48.822;8.796;2024-01-30T13:59:18;4.60;;;3.30;;
47844;SDS011;33605;48.822;8.796;2024-01-30T14:01:48;5.47;;;3.50;;
47844;SDS011;33605;48.822;8.796;2024-01-30T14:04:15;4.63;;;3.60;;
47844;SDS011;33605;48.822;8.796;2024-01-30T14:06:41;3.97;;;3.57;;
47844;SDS011;33605;48.822;8.796;2024-01-30T14:09:07;4.43;;;3.93;;
47844;SDS011;33605;48.822;8.796;2024-01-30T14:11:33;4.07;;;3.67;;
47844;SDS011;33605;48.822;8.796;2024-01-30T14:13:59;4.20;;;3.80;;
47844;SDS011;33605;48.822;8.796;2024-01-30T14:16:25;4.53;;;4.13;;
47844;SDS011;33605;48.822;8.796;2024-01-30T14:18:51;6.53;;;4.00;;
47844;SDS011;33605;48.822;8.796;2024-01-30T14:21:17;5.50;;;4.40;;
47844;SDS011;33605;48.822;8.796;2024-01-30T14:23:43;9.77;;;8.07;;
47844;SDS011;33605;48.822;8.796;2024-01-30T14:26:09;5.27;;;4.77;;
47844;SDS011;33605;48.822;8.796;2024-01-30T14:28:35;6.73;;;4.40;;
47844;SDS011;33605;48.822;8.796;2024-01-30T14:31:01;3.83;;;3.27;;
47844;SDS011;33605;48.822;8.796;2024-01-30T14:33:27;3.97;;;3.50;;
47844;SDS011;33605;48.822;8.796;2024-01-30T14:35:53;7.70;;;4.10;;
47844;SDS011;33605;48.822;8.796;2024-01-30T14:38:19;7.70;;;5.10;;